KPBF

Pine Bluff Regional Grider Field Airport

Pine Bluff, Arkansas, USA
KPBF 201724Z 2018/2118 08011G18KT P6SM SCT250 FM210000 09003KT P6SM SCT250 FM211500 11008KT P6SM OVC250
Issued Valid From Valid To
Apr-20 @ 17:24 UTC
(an hour ago)
Apr-20 @ 18:00 UTC
(34 minutes ago)
Apr-21 @ 18:00 UTC
(in 23 hours)
Apr-20 @ 18:00 to Apr-21 @ 00:00
KPBF 201724Z 2018/2118 08011G18KT P6SM SCT250
Wind Visibility Clouds
80° at 11 knots
 Gusting to 18 knots
Greater than 6 miles
  • Scattered at 25,000' AGL
From Apr-21 @ 00:00 to Apr-21 @ 15:00
FM210000 09003KT P6SM SCT250
Wind Visibility Clouds
90° at 3 knots Greater than 6 miles
  • Scattered at 25,000' AGL
From Apr-21 @ 15:00 to Apr-21 @ 18:00
FM211500 11008KT P6SM OVC250
Wind Visibility Clouds
110° at 8 knots Greater than 6 miles
  • Overcast at 25,000' AGL
KPBF 201724Z 2018/2118 08011G18KT P6SM SCT250 FM210000 09003KT P6SM SCT250 FM211500 11008KT P6SM OVC250
Issued Apr-20 @ 17:24 UTC
(an hour ago)
Valid From Apr-20 @ 18:00 UTC
(34 minutes ago)
Valid To Apr-21 @ 18:00 UTC
(in 23 hours)
Apr-20 @ 18:00 - Apr-21 @ 00:00
Wind Visibility
80° at 11 knots
 Gusting to 18 knots
Greater than 6 miles
Clouds
  • Scattered at 25,000' AGL
From Apr-21 @ 00:00 - Apr-21 @ 15:00
Wind Visibility
90° at 3 knots Greater than 6 miles
Clouds
  • Scattered at 25,000' AGL
From Apr-21 @ 15:00 - Apr-21 @ 18:00
Wind Visibility
110° at 8 knots Greater than 6 miles
Clouds
  • Overcast at 25,000' AGL